Tiempo atmosférico en la estación meteorológica de Calasparra, Murcia (394 m.)

Fecha
DESCASC
Temp. máxima en grados centígrados (hora)
DESCASC
Temp. mínima en grados centígrados (hora)
DESCASC
Temp. media en grados centígrados
DESCASC
Racha de viento máxima en m/sg (hora)
DESCASC
Velocidad máxima media en intervalos de 10 minutos(hora)
DESCASC
Precipitaciones diarias en mm
DESCASC
Precipitaciones de 00:00 a 06:00 en mm
DESCASC
Precipitaciones de 06:00 a 12:00 en mm
DESCASC
Precipitaciones de 12:00 a 18:00 en mm
DESCASC
Precipitaciones de 18:00 a 24:00 en mm
DESCASC
17-09-2017 27 (17:20) 14.2 (08:10) 20.6 9.72 (20:10) 5.56 (19:10) 0 0 0 0 0
16-09-2017 24.5 (17:10) 15.2 (04:30) 19.8 10 (18:40) 6.39 (19:00) 1.2 1.2 0 0 0
15-09-2017 29.1 (16:10) 17.2 (23:59) 23.2 12.5 (18:00) 6.67 (17:30) 0 0 0 0 0
14-09-2017 35.6 (16:50) 15.3 (00:00) 25.4 8.33 (18:40) 5.28 (18:50) 0 0 0 0 0
13-09-2017 30.1 (16:20) 16.2 (00:00) 23.2 11.67 (19:00) 7.22 (19:00) 0 0 0 0 0
12-09-2017 32.5 (16:00) 17.8 (00:00) 25.1 10.83 (18:20) 7.22 (18:40) 0 0 0 0 0
11-09-2017 33.2 (16:30) 16.4 (00:00) 24.8 7.78 (18:40) 4.44 (19:10) 0 0 0 0 0
10-09-2017 27.6 (17:10) 16.3 (00:00) 21.9 14.72 (10:50) 8.61 (10:50) 0 0 0 0 0
09-09-2017 29.8 (17:30) 17 (00:00) 23.4 11.67 (19:10) 6.11 (18:50) 0 0 0 0 0
08-09-2017 30.1 (16:50) 19.9 (00:00) 25 8.61 (17:40) 5.56 (19:30) 0 0 0 0 0
07-09-2017 29.4 (15:20) 19.9 (00:00) 24.6 9.17 (15:40) 5.56 (16:40) 0 0 0 0 0
06-09-2017 -- (--) -- (--) -- -- (--) -- (--) -- 0 -- -- 0
05-09-2017 30.9 (17:20) 20.3 (00:00) 25.6 10.28 (20:10) 6.39 (19:30) 0 0 0 0 0
04-09-2017 34.8 (16:10) 18.8 (00:00) 26.8 10 (18:00) 6.11 (18:10) 0 0 0 0 0
03-09-2017 31.9 (17:20) 18.3 (00:00) 25.1 6.94 (18:50) 4.17 (18:50) 0 0 0 0 0
02-09-2017 28.2 (17:00) 20.6 (00:00) 24.4 8.61 (20:20) 5.28 (20:00) 0 0 0 0 0
01-09-2017 28.9 (15:40) 18.1 (00:00) 23.5 9.72 (18:40) 6.11 (18:30) 0 0 0 0 0
31-08-2017 29.4 (16:10) 18.4 (00:00) 23.9 9.44 (18:30) 5.56 (18:30) 0 0 0 0 0
30-08-2017 23.6 (19:10) 17.7 (00:00) 20.7 6.94 (01:00) 3.33 (01:00) 5.6 0.2 1.4 4 0
29-08-2017 22.9 (00:00) 18.2 (00:00) 20.6 11.39 (22:20) 5.83 (22:20) 34.6 14.4 0.6 10.4 9.2
28-08-2017 29 (17:10) 21.1 (00:00) 25.1 11.39 (11:20) 7.22 (11:20) 0 0 0 0 0
27-08-2017 32.4 (17:00) 20.9 (00:00) 26.7 9.72 (17:30) 4.72 (18:40) 0.2 0 0 0 0.2
26-08-2017 34 (15:00) 22.1 (00:00) 28.1 11.11 (17:20) 6.67 (17:20) 0 0 0 0 0
25-08-2017 33.6 (15:00) 18.8 (00:00) 26.2 11.11 (16:40) 6.11 (16:40) 0 0 0 0 0
24-08-2017 33.5 (16:40) 18.2 (00:00) 25.9 10.83 (17:20) 6.67 (18:10) 0 0 0 0 0
23-08-2017 34.1 (16:20) 19.6 (00:00) 26.8 12.22 (18:20) 7.5 (19:30) 0 0 0 0 0
22-08-2017 34.3 (16:50) 19.1 (00:00) 26.7 10 (18:40) 6.11 (19:50) 0 0 0 0 0

Gráficas

Temp. máximas Temp. mínimas Temp. medias Precipitaciones Rachas de viento máximas Velocidades máximas media en intervalos de 10 minutos

Datos horarios

Fecha y hora oficial Temperatura (ºC) Velocidad del viento (km/h) Dirección del viento Racha (km/h) Dirección de racha Precipitación (mm) Presión (hPa) Tendencia (hPa) Humedad (%)
2017-09-20 23:00:00 21.2 9 Sudeste 19 Sudeste 0 -- -- 49
2017-09-20 22:00:00 22 9 Sudeste 23 Sudeste 0 -- -- 49
2017-09-20 21:00:00 22.9 14 Sudeste 27 Sudeste 0 -- -- 54
2017-09-20 20:00:00 24.5 16 Sudeste 30 Sudeste 0 -- -- 55
2017-09-20 19:00:00 26.2 20 Sudeste 30 Sudeste 0 -- -- 49
2017-09-20 18:00:00 27.2 16 Sudeste 32 Sudeste 0 -- -- 44
2017-09-20 17:00:00 27.6 15 Sudeste 28 Este 0 -- -- 44
2017-09-20 16:00:00 27.3 13 Sudeste 28 Este 0 -- -- 46
2017-09-20 15:00:00 26.5 13 Sudeste 24 Sudeste 0 -- -- 48
2017-09-20 14:00:00 25.3 7 Este 15 Nordeste 0 -- -- 55
2017-09-20 13:00:00 23.5 7 Nordeste 14 Nordeste 0 -- -- 61
2017-09-20 12:00:00 22.1 8 Sudeste 18 Sudeste 0 -- -- 64
2017-09-20 11:00:00 19.4 4 Sudeste 8 Este 0 -- -- 61
2017-09-20 10:00:00 16.7 2 Norte 6 Norte 0 -- -- 64
2017-09-20 09:00:00 14.7 0 Calma 5 Sudeste 0 -- -- 76
2017-09-20 08:00:00 14.4 3 Sur 8 Sudoeste 0 -- -- 77
2017-09-20 07:00:00 14.3 5 Sur 9 Sur 0 -- -- 77
2017-09-20 06:00:00 15 3 Sur 6 Sudeste 0 -- -- 76
2017-09-20 05:00:00 15.5 5 Sur 7 Sur 0 -- -- 74
2017-09-20 04:00:00 16.1 5 Sur 7 Sur 0 -- -- 72
2017-09-20 03:00:00 17.2 2 Sudeste 5 Oeste 0 -- -- 71
2017-09-20 02:00:00 17.8 0 Calma 9 Sudoeste 0 -- -- 75
2017-09-20 01:00:00 18.8 3 Sudoeste 6 Sudoeste 0 -- -- 69
2017-09-20 00:00:00 19.7 0 Calma 6 Nordeste 0 -- -- 74
2017-09-19 23:00:00 20.5 2 Nordeste 10 Nordeste 0 -- -- 69
2017-09-19 22:00:00 21.5 7 Este 13 Este 0 -- -- 65
2017-09-19 21:00:00 24 5 Este 19 Este 0 -- -- 51
2017-09-19 20:00:00 26.6 6 Sudeste 16 Sudeste 0 -- -- 27
2017-09-19 19:00:00 28 10 Sudeste 21 Sudeste 0 -- -- 25
2017-09-19 18:00:00 28.9 4 Nordeste 24 Este 0 -- -- 24
2017-09-19 17:00:00 28.7 8 Sudeste 21 Sudeste 0 -- -- 25
2017-09-19 16:00:00 28.6 6 Este 22 Nordeste 0 -- -- 26
2017-09-19 15:00:00 27.5 6 Este 20 Nordeste 0 -- -- 28
2017-09-19 14:00:00 26.7 8 Nordeste 13 Nordeste 0 -- -- 29
2017-09-19 13:00:00 25.8 10 Nordeste 19 Nordeste 0 -- -- 31
2017-09-19 12:00:00 24.5 4 Este 14 Noroeste 0 -- -- 35
2017-09-19 11:00:00 21.4 4 Noroeste 10 Oeste 0 -- -- 39
2017-09-19 10:00:00 18.9 3 Noroeste 8 Oeste 0 -- -- 44
2017-09-19 09:00:00 16.3 3 Sur 8 Oeste 0 -- -- 51
2017-09-19 08:00:00 14.8 0 Calma 6 Noroeste 0 -- -- 52
2017-09-19 07:00:00 15.1 2 Noroeste 7 Sudeste 0 -- -- 51
2017-09-19 06:00:00 17.6 3 Noroeste 9 Oeste 0 -- -- 44
2017-09-19 05:00:00 17.3 6 Oeste 10 Oeste 0 -- -- 44
2017-09-19 04:00:00 17.4 4 Sur 8 Sudeste 0 -- -- 46
2017-09-19 03:00:00 18.6 3 Sur 8 Sudoeste 0 -- -- 43
2017-09-19 02:00:00 19.9 0 Calma 10 Oeste 0 -- -- 39
2017-09-19 01:00:00 21.4 6 Oeste 14 Noroeste 0 -- -- 35
2017-09-19 00:00:00 21.8 8 Oeste 13 Noroeste 0 -- -- 34
2017-09-18 23:00:00 23.3 6 Noroeste 9 Norte 0 -- -- 31
2017-09-18 22:00:00 23.9 3 Norte 18 Oeste 0 -- -- 28
2017-09-18 21:00:00 25.7 9 Oeste 22 Noroeste 0 -- -- 25
2017-09-18 20:00:00 27 7 Noroeste 24 Oeste 0 -- -- 26
2017-09-18 19:00:00 28.8 10 Oeste 30 Noroeste 0 -- -- 22
2017-09-18 18:00:00 29.1 15 Noroeste 37 Noroeste 0 -- -- 20
2017-09-18 17:00:00 29.4 22 Noroeste 39 Noroeste 0 -- -- 18
2017-09-18 16:00:00 29.8 21 Noroeste 34 Noroeste 0 -- -- 20
2017-09-18 15:00:00 30.6 7 Sur 19 Noroeste 0 -- -- 18
2017-09-18 14:00:00 29.3 4 Este 17 Sudeste 0 -- -- 20
2017-09-18 13:00:00 27.6 8 Sur 18 Sudeste 0 -- -- 24
2017-09-18 12:00:00 24.9 4 Nordeste 9 Nordeste 0 -- -- 38
2017-09-18 11:00:00 22.5 3 Este 7 Sudeste 0 -- -- 40
2017-09-18 10:00:00 18.9 5 Sur 8 Sudeste 0 -- -- 50
2017-09-18 09:00:00 16.2 2 Este 12 Sur 0 -- -- 67
2017-09-18 08:00:00 14.1 5 Sur 8 Sur 0 -- -- 78
2017-09-18 07:00:00 14.8 0 Calma 8 Sur 0 -- -- 80
2017-09-18 06:00:00 15.4 4 Sur 8 Sur 0 -- -- 82
2017-09-18 05:00:00 16 4 Sur 8 Sur 0 -- -- 78
2017-09-18 04:00:00 17.4 3 Sudeste 8 Sur 0 -- -- 77
2017-09-18 03:00:00 18.4 6 Oeste 10 Noroeste 0 -- -- 78
2017-09-18 02:00:00 18.8 6 Noroeste 11 Oeste 0 -- -- 75
2017-09-18 01:00:00 19.4 6 Noroeste 9 Noroeste 0 -- -- 73
2017-09-18 00:00:00 20.8 5 Sudeste 14 Sudeste 0 -- -- 72
2017-09-17 23:00:00 21.5 9 Sudeste 24 Sudeste 0 -- -- 69
2017-09-17 22:00:00 22 16 Sudeste 27 Este 0 -- -- 64
2017-09-17 21:00:00 23 13 Sudeste 35 Sudeste 0 -- -- 52
2017-09-17 20:00:00 24.4 17 Sudeste 35 Sudeste 0 -- -- 50
2017-09-17 19:00:00 26 17 Sudeste 32 Sudeste 0 -- -- 44
2017-09-17 18:00:00 26.7 14 Sudeste 28 Sudeste 0 -- -- 41
2017-09-17 17:00:00 26.9 11 Sudeste 27 Este 0 -- -- 40
2017-09-17 16:00:00 26.6 11 Sudeste 24 Sur 0 -- -- 42
2017-09-17 15:00:00 26 12 Sudeste 24 Sudeste 0 -- -- 41
2017-09-17 14:00:00 25.3 10 Este 20 Sudeste 0 -- -- 43
2017-09-17 13:00:00 23.7 5 Nordeste 14 Nordeste 0 -- -- 53
2017-09-17 12:00:00 22.3 5 Sur 12 Sudeste 0 -- -- 56
2017-09-17 11:00:00 19.9 3 Este 7 Noroeste 0 -- -- 65
2017-09-17 10:00:00 18 4 Sudoeste 10 Sur 0 -- -- 67
2017-09-17 09:00:00 15.3 8 Sur 13 Sur 0 -- -- 75
2017-09-17 08:00:00 14.4 4 Sur 10 Sur 0 -- -- 75
2017-09-17 07:00:00 15.1 7 Sur 13 Sur 0 -- -- 77
2017-09-17 06:00:00 15.3 2 Sudeste 8 Sur 0 -- -- 84
2017-09-17 05:00:00 15.2 4 Sur 8 Sur 0 -- -- 86
2017-09-17 04:00:00 15.2 5 Noroeste 6 Noroeste 0 -- -- 87
2017-09-17 03:00:00 15.8 0 Calma 8 Sudeste 0 -- -- 85
2017-09-17 02:00:00 16.6 3 Sudeste 8 Sudeste 0 -- -- 82
2017-09-17 01:00:00 17.1 5 Sudeste 11 Sur 0 -- -- 80
2017-09-17 00:00:00 17.8 6 Sur 12 Sur 0 -- -- 77
2017-09-16 23:00:00 18.2 6 Sur 11 Sur 0 -- -- 76
2017-09-16 22:00:00 18.6 4 Sudeste 16 Sudeste 0 -- -- 75
2017-09-16 21:00:00 19.3 5 Sudeste 28 Sudeste 0 -- -- 72
2017-09-16 20:00:00 20.3 15 Sudeste 35 Sudeste 0 -- -- 67
2017-09-16 19:00:00 21.7 23 Sudeste 36 Sudeste 0 -- -- 61
2017-09-16 18:00:00 22.9 23 Sudeste 35 Este 0 -- -- 55
2017-09-16 17:00:00 24.4 16 Sudeste 29 Sudeste 0 -- -- 49
2017-09-16 16:00:00 23.9 12 Sudeste 21 Sudeste 0 -- -- 51
2017-09-16 15:00:00 23.1 5 Este 17 Este 0 -- -- 54
2017-09-16 14:00:00 22 9 Nordeste 20 Nordeste 0 -- -- 58
2017-09-16 13:00:00 20.7 6 Nordeste 22 Nordeste 0 -- -- 61
2017-09-16 12:00:00 20.6 7 Nordeste 13 Nordeste 0 -- -- 61
2017-09-16 11:00:00 18.8 3 Nordeste 9 Norte 0 -- -- 67
2017-09-16 10:00:00 17.2 2 Nordeste 5 Nordeste 0 -- -- 72
2017-09-16 09:00:00 16.3 2 Nordeste 9 Sudeste 0 -- -- 77
2017-09-16 08:00:00 15.9 4 Sudeste 7 Sudeste 0 -- -- 78
2017-09-16 07:00:00 15.7 0 Calma 9 Sudeste 0 -- -- 80
2017-09-16 06:00:00 15.6 2 Nordeste 4 Este 0 -- -- 81
2017-09-16 05:00:00 15.4 0 Calma 6 Norte 0 -- -- 84
2017-09-16 04:00:00 15.4 4 Nordeste 12 Nordeste 1.2 -- -- 82
2017-09-16 03:00:00 16.3 7 Nordeste 18 Nordeste 0 -- -- 74
2017-09-16 02:00:00 16.5 9 Este 22 Este 0 -- -- 74
2017-09-16 01:00:00 16.6 10 Nordeste 22 Este 0 -- -- 77
2017-09-16 00:00:00 17.2 10 Nordeste 27 Este 0 -- -- 79
2017-09-15 23:00:00 18.1 12 Nordeste 28 Nordeste 0 -- -- 74
2017-09-15 22:00:00 18.6 14 Nordeste 31 Nordeste 0 -- -- 73
2017-09-15 21:00:00 19.8 15 Nordeste 37 Este 0 -- -- 72
2017-09-15 20:00:00 23.1 17 Este 36 Este 0 -- -- 69
2017-09-15 19:00:00 24.7 23 Sudeste 41 Sudeste 0 -- -- 66
2017-09-15 18:00:00 26.2 24 Sudeste 45 Sudeste 0 -- -- 59
2017-09-15 17:00:00 28.4 16 Sudeste 30 Sudeste 0 -- -- 50
2017-09-15 16:00:00 28.8 12 Este 28 Este 0 -- -- 47
2017-09-15 15:00:00 28.1 14 Nordeste 26 Nordeste 0 -- -- 50
2017-09-15 14:00:00 26.8 11 Nordeste 22 Nordeste 0 -- -- 55
2017-09-15 13:00:00 26 9 Nordeste 19 Nordeste 0 -- -- 58
2017-09-15 12:00:00 24 6 Nordeste 13 Nordeste 0 -- -- 62
2017-09-15 11:00:00 23.3 6 Nordeste 12 Nordeste 0 -- -- 63
2017-09-15 10:00:00 21 2 Norte 6 Noroeste 0 -- -- 61
2017-09-15 09:00:00 19.3 2 Sudeste 6 Sur 0 -- -- 64
2017-09-15 08:00:00 19.3 0 Calma 6 Sudoeste 0 -- -- 63
2017-09-15 07:00:00 19.6 3 Sur 6 Sur 0 -- -- 61
2017-09-15 06:00:00 20.5 0 Calma 4 Norte 0 -- -- 60
2017-09-15 05:00:00 21.5 3 Nordeste 10 Este 0 -- -- 58
2017-09-15 04:00:00 22.1 5 Nordeste 12 Nordeste 0 -- -- 55
2017-09-15 03:00:00 23.3 4 Nordeste 13 Noroeste 0 -- -- 49
2017-09-15 02:00:00 23.5 6 Noroeste 8 Noroeste 0 -- -- 44
2017-09-15 01:00:00 24.8 4 Sudeste 9 Noroeste 0 -- -- 39
2017-09-15 00:00:00 25.5 8 Noroeste 12 Oeste 0 -- -- 37
2017-09-14 23:00:00 26.1 2 Norte 12 Sudeste 0 -- -- 36
2017-09-14 22:00:00 27.4 5 Sur 15 Sur 0 -- -- 33
2017-09-14 21:00:00 29.4 8 Sur 18 Sudeste 0 -- -- 29
2017-09-14 20:00:00 31.2 10 Sudeste 24 Sudeste 0 -- -- 28
2017-09-14 19:00:00 32.9 16 Sudeste 30 Sudeste 0 -- -- 26
2017-09-14 18:00:00 35.2 5 Este 15 Sudeste 0 -- -- 17
2017-09-14 17:00:00 35.5 6 Este 21 Noroeste 0 -- -- 17
2017-09-14 16:00:00 35.2 11 Norte 26 Norte 0 -- -- 19
2017-09-14 15:00:00 34.5 12 Norte 26 Norte 0 -- -- 20
2017-09-14 14:00:00 33.6 16 Norte 27 Noroeste 0 -- -- 21
2017-09-14 13:00:00 31.1 4 Nordeste 11 Este 0 -- -- 30
2017-09-14 12:00:00 27.5 5 Nordeste 8 Este 0 -- -- 39
2017-09-14 11:00:00 24.2 4 Este 8 Este 0 -- -- 47
2017-09-14 10:00:00 20.2 2 Nordeste 8 Sur 0 -- -- 61
2017-09-14 09:00:00 17.2 4 Sur 6 Sur 0 -- -- 71
2017-09-14 08:00:00 15.4 2 Sur 6 Sur 0 -- -- 76
2017-09-14 07:00:00 15.5 4 Sur 9 Sur 0 -- -- 76
2017-09-14 06:00:00 16.7 2 Sur 6 Sur 0 -- -- 70
2017-09-14 05:00:00 16.9 3 Sudeste 4 Sudeste 0 -- -- 69
2017-09-14 04:00:00 18 3 Oeste 10 Oeste 0 -- -- 78
2017-09-14 03:00:00 18.4 0 Calma 5 Oeste 0 -- -- 76
2017-09-14 02:00:00 19.9 0 Calma 5 Sudeste 0 -- -- 78
2017-09-14 01:00:00 20.6 3 Noroeste 18 Este 0 -- -- 77
2017-09-14 00:00:00 21.6 8 Sudeste 24 Sudeste 0 -- -- 72
2017-09-13 23:00:00 22.5 14 Sudeste 21 Sudeste 0 -- -- 61
2017-09-13 22:00:00 23.6 13 Sudeste 27 Sudeste 0 -- -- 53
2017-09-13 21:00:00 25.2 16 Sudeste 34 Sudeste 0 -- -- 36
2017-09-13 20:00:00 27 21 Sudeste 41 Sudeste 0 -- -- 33
2017-09-13 19:00:00 28.4 26 Sudeste 42 Sudeste 0 -- -- 33
2017-09-13 18:00:00 29.5 22 Sudeste 40 Sudeste 0 -- -- 33
2017-09-13 17:00:00 30 23 Sudeste 39 Sudeste 0 -- -- 34
2017-09-13 16:00:00 29.9 17 Sudeste 36 Sudeste 0 -- -- 33
2017-09-13 15:00:00 29.1 17 Sudeste 33 Sudeste 0 -- -- 36
2017-09-13 14:00:00 28.1 17 Este 32 Sudeste 0 -- -- 39
2017-09-13 13:00:00 26.8 15 Sudeste 23 Sudeste 0 -- -- 42
2017-09-13 12:00:00 24.4 7 Nordeste 14 Nordeste 0 -- -- 59
2017-09-13 11:00:00 23.1 4 Este 8 Este 0 -- -- 62
2017-09-13 10:00:00 20.7 2 Este 4 Este 0 -- -- 70
2017-09-13 09:00:00 17.8 2 Este 5 Sur 0 -- -- 80
2017-09-13 08:00:00 16.2 2 Sur 5 Sur 0 -- -- 84
2017-09-13 07:00:00 16.6 3 Sudeste 6 Sur 0 -- -- 83
2017-09-13 06:00:00 17.2 4 Sudoeste 7 Sur 0 -- -- 83
2017-09-13 05:00:00 17.7 2 Nordeste 5 Sur 0 -- -- 81
2017-09-13 04:00:00 18.9 2 Sudeste 11 Sudeste 0 -- -- 79
2017-09-13 03:00:00 19.2 6 Sur 13 Sudeste 0 -- -- 80
2017-09-13 02:00:00 19.7 9 Sudeste 15 Este 0 -- -- 78
2017-09-13 01:00:00 20.1 8 Sudeste 13 Sur 0 -- -- 75
2017-09-13 00:00:00 20.9 6 Sudeste 14 Sudeste 0 -- -- 70
2017-09-12 23:00:00 21.5 8 Sudeste 14 Sur 0 -- -- 68
2017-09-12 22:00:00 22.3 8 Sudeste 14 Sudeste 0 -- -- 64
2017-09-12 21:00:00 23.8 8 Sudeste 28 Sudeste 0 -- -- 60
2017-09-12 20:00:00 25.2 18 Sudeste 39 Sudeste 0 -- -- 57
2017-09-12 19:00:00 26.8 23 Sudeste 39 Sudeste 0 -- -- 52
2017-09-12 18:00:00 28.9 24 Sudeste 39 Sudeste 0 -- -- 45
2017-09-12 17:00:00 32.2 9 Nordeste 29 Este 0 -- -- 29
2017-09-12 16:00:00 32.5 5 Nordeste 23 Este 0 -- -- 25
2017-09-12 15:00:00 31.9 10 Nordeste 19 Nordeste 0 -- -- 26
2017-09-12 14:00:00 31.1 9 Nordeste 23 Este 0 -- -- 27
2017-09-12 13:00:00 29.9 9 Este 22 Este 0 -- -- 29
2017-09-12 12:00:00 28.9 10 Nordeste 18 Nordeste 0 -- -- 31
2017-09-12 11:00:00 26.9 6 Nordeste 12 Nordeste 0 -- -- 35
2017-09-12 10:00:00 24.1 4 Sur 10 Sur 0 -- -- 40
2017-09-12 09:00:00 20 4 Sur 9 Sur 0 -- -- 47
2017-09-12 08:00:00 18.6 6 Sudoeste 11 Sudoeste 0 -- -- 48
2017-09-12 07:00:00 18.2 6 Sur 8 Sur 0 -- -- 50
2017-09-12 06:00:00 18.6 0 Calma 9 Sur 0 -- -- 47
2017-09-12 05:00:00 19.6 6 Sudoeste 11 Sur 0 -- -- 43
2017-09-12 04:00:00 19.9 2 Sur 12 Sudoeste 0 -- -- 43
2017-09-12 03:00:00 20.1 6 Sur 10 Sur 0 -- -- 45
2017-09-12 02:00:00 20.7 3 Sudoeste 13 Noroeste 0 -- -- 44
2017-09-12 01:00:00 21.6 3 Sur 11 Sur 0 -- -- 43
2017-09-12 00:00:00 23.3 3 Sur 5 Sur 0 -- -- 40
2017-09-11 23:00:00 24.1 2 Norte 9 Sudeste 0 -- -- 38
2017-09-11 22:00:00 26.7 6 Sudeste 17 Sur 0 -- -- 31
2017-09-11 21:00:00 28 8 Sur 17 Sudeste 0 -- -- 31
2017-09-11 20:00:00 29.9 11 Sudeste 25 Sudeste 0 -- -- 28
2017-09-11 19:00:00 31.3 15 Sudeste 28 Sudeste 0 -- -- 27
2017-09-11 18:00:00 32.4 14 Sudeste 24 Sudeste 0 -- -- 24
2017-09-11 17:00:00 32.9 11 Sudeste 22 Sudeste 0 -- -- 23
2017-09-11 16:00:00 32.9 8 Sudeste 18 Sudeste 0 -- -- 23
2017-09-11 15:00:00 32.2 7 Sudeste 19 Sur 0 -- -- 24
2017-09-11 14:00:00 31 5 Sudeste 13 Este 0 -- -- 24
2017-09-11 13:00:00 29.4 5 Nordeste 10 Este 0 -- -- 25
2017-09-11 12:00:00 27.7 5 Sudeste 9 Este 0 -- -- 24
2017-09-11 11:00:00 25.4 3 Sudeste 9 Sudeste 0 -- -- 26
2017-09-11 10:00:00 21.5 5 Sudeste 9 Sudeste 0 -- -- 38
2017-09-11 09:00:00 18.1 7 Sur 11 Sur 0 -- -- 43
2017-09-11 08:00:00 16.5 8 Sudoeste 11 Sudoeste 0 -- -- 42
2017-09-11 07:00:00 18.1 5 Oeste 11 Sudoeste 0 -- -- 35
2017-09-11 06:00:00 16.8 5 Sur 10 Sur 0 -- -- 39
2017-09-11 05:00:00 17.1 0 Calma 4 Sur 0 -- -- 38
2017-09-11 04:00:00 17.4 3 Sudoeste 9 Sur 0 -- -- 38
2017-09-11 03:00:00 18.1 3 Sur 10 Sur 0 -- -- 36
2017-09-11 02:00:00 17.8 5 Sur 12 Sur 0 -- -- 37
2017-09-11 01:00:00 18.9 5 Sur 13 Sur 0 -- -- 36
2017-09-11 00:00:00 19.8 6 Sur 12 Sudeste 0 -- -- 32
2017-09-10 23:00:00 21.5 3 Sudoeste 9 Oeste 0 -- -- 26
2017-09-10 22:00:00 21.2 4 Noroeste 10 Oeste 0 -- -- 27
2017-09-10 21:00:00 23 8 Noroeste 20 Norte 0 -- -- 24
2017-09-10 20:00:00 25.7 12 Norte 27 Norte 0 -- -- 22
2017-09-10 19:00:00 27.2 12 Norte 32 Norte 0 -- -- 20
2017-09-10 18:00:00 27.5 17 Norte 35 Norte 0 -- -- 19
2017-09-10 17:00:00 27.4 18 Norte 34 Norte 0 -- -- 20
2017-09-10 16:00:00 26.7 20 Noroeste 37 Norte 0 -- -- 21
2017-09-10 15:00:00 25.7 19 Noroeste 40 Norte 0 -- -- 23
2017-09-10 14:00:00 24.5 18 Norte 39 Norte 0 -- -- 26
2017-09-10 13:00:00 23 21 Norte 38 Noroeste 0 -- -- 29
2017-09-10 12:00:00 21.7 22 Noroeste 49 Noroeste 0 -- -- 31
2017-09-10 11:00:00 20.2 25 Noroeste 53 Noroeste 0 -- -- 35
2017-09-10 10:00:00 19 21 Noroeste 45 Noroeste 0 -- -- 40
2017-09-10 09:00:00 18 15 Noroeste 28 Noroeste 0 -- -- 44
2017-09-10 08:00:00 16.8 10 Noroeste 20 Noroeste 0 -- -- 45
2017-09-10 07:00:00 16.5 9 Noroeste 21 Noroeste 0 -- -- 46
2017-09-10 06:00:00 17.6 11 Noroeste 18 Noroeste 0 -- -- 48
2017-09-10 05:00:00 18.7 12 Norte 23 Noroeste 0 -- -- 46
2017-09-10 04:00:00 19.8 5 Noroeste 16 Noroeste 0 -- -- 31
2017-09-10 03:00:00 21 12 Noroeste 22 Noroeste 0 -- -- 29
2017-09-10 02:00:00 21.2 9 Noroeste 21 Noroeste 0 -- -- 32
2017-09-10 01:00:00 21.9 4 Norte 14 Norte 0 -- -- 37
2017-09-10 00:00:00 23 0 Calma 13 Norte 0 -- -- 39
2017-09-09 23:00:00 24.5 9 Norte 22 Norte 0 -- -- 37
2017-09-09 22:00:00 25.5 15 Norte 27 Noroeste 0 -- -- 35
2017-09-09 21:00:00 26.7 15 Noroeste 36 Oeste 0 -- -- 30
2017-09-09 20:00:00 27.8 19 Oeste 42 Noroeste 0 -- -- 28
2017-09-09 19:00:00 29.1 22 Noroeste 40 Noroeste 0 -- -- 25
2017-09-09 18:00:00 29.5 13 Oeste 24 Oeste 0 -- -- 24
2017-09-09 17:00:00 28.2 3 Sudeste 10 Norte 0 -- -- 29
2017-09-09 16:00:00 24.8 3 Noroeste 11 Noroeste 0 -- -- 44
2017-09-09 15:00:00 25.2 4 Este 6 Sudeste 0 -- -- 45
2017-09-09 14:00:00 24 3 Norte 7 Nordeste 0 -- -- 63
2017-09-09 13:00:00 22.4 3 Norte 8 Nordeste 0 -- -- 70
2017-09-09 12:00:00 20.7 4 Norte 9 Noroeste 0 -- -- 83
2017-09-09 11:00:00 18.9 5 Noroeste 12 Noroeste 0 -- -- 94
2017-09-09 10:00:00 18.2 6 Noroeste 9 Noroeste 0 -- -- 94
2017-09-09 09:00:00 18.1 3 Oeste 9 Oeste 0 -- -- 94
2017-09-09 08:00:00 17.3 4 Oeste 10 Oeste 0 -- -- 92
2017-09-09 07:00:00 18 5 Sur 9 Sur 0 -- -- 91
2017-09-09 06:00:00 17.7 6 Sur 10 Sur 0 -- -- 90
2017-09-09 05:00:00 18.3 2 Sudoeste 8 Oeste 0 -- -- 91
2017-09-09 04:00:00 18.7 3 Noroeste 6 Oeste 0 -- -- 89
2017-09-09 03:00:00 19.9 0 Calma 10 Sur 0 -- -- 87
2017-09-09 02:00:00 20.8 4 Sudeste 7 Sudeste 0 -- -- 85
2017-09-09 01:00:00 21.3 4 Norte 5 Norte 0 -- -- 85
2017-09-09 00:00:00 22 3 Norte 11 Nordeste 0 -- -- 82
2017-09-08 23:00:00 23.5 8 Este 18 Este 0 -- -- 74
2017-09-08 22:00:00 24.1 11 Sudeste 22 Sudeste 0 -- -- 71
2017-09-08 21:00:00 25.3 16 Sudeste 30 Sudeste 0 -- -- 67
2017-09-08 20:00:00 27.2 15 Sudeste 30 Sudeste 0 -- -- 60
2017-09-08 19:00:00 29 16 Sudeste 30 Sudeste 0 -- -- 55
2017-09-08 18:00:00 29.9 15 Sudeste 31 Sudeste 0 -- -- 50
2017-09-08 17:00:00 30 16 Sudeste 28 Sudeste 0 -- -- 48
2017-09-08 16:00:00 29.7 13 Sudeste 27 Sudeste 0 -- -- 51
2017-09-08 15:00:00 29 12 Sudeste 21 Sudeste 0 -- -- 52
2017-09-08 14:00:00 27.8 6 Este 13 Nordeste 0 -- -- 56
2017-09-08 13:00:00 25.9 6 Nordeste 14 Nordeste 0 -- -- 64
2017-09-08 12:00:00 24 4 Norte 10 Este 0 -- -- 71
2017-09-08 11:00:00 23.1 4 Nordeste 9 Este 0 -- -- 74
2017-09-08 10:00:00 21.8 3 Sudeste 7 Sudeste 0 -- -- 80
2017-09-08 09:00:00 20.7 4 Sur 6 Sudeste 0 -- -- 85
2017-09-08 08:00:00 20.2 0 Calma 4 Nordeste 0 -- -- 89
2017-09-08 07:00:00 20.1 2 Noroeste 5 Sur 0 -- -- 89
2017-09-08 06:00:00 20.1 0 Calma 5 Oeste 0 -- -- 90
2017-09-08 05:00:00 20 0 Calma 6 Norte 0 -- -- 91
2017-09-08 04:00:00 20 3 Norte 4 Norte 0 -- -- 89
2017-09-08 03:00:00 20.8 0 Calma 4 Este 0 -- -- 84
2017-09-08 02:00:00 21.6 0 Calma 10 Sur 0 -- -- 80
2017-09-08 01:00:00 21.9 3 Sudeste 9 Este 0 -- -- 79
2017-09-08 00:00:00 22.5 4 Este 11 Este 0 -- -- 77
2017-09-07 23:00:00 23.4 3 Este 18 Sudeste 0 -- -- 74
2017-09-07 22:00:00 24.2 12 Sudeste 23 Sudeste 0 -- -- 71
2017-09-07 21:00:00 25.1 15 Sudeste 31 Sudeste 0 -- -- 66
2017-09-07 20:00:00 26.2 19 Sudeste 32 Sudeste 0 -- -- 62
2017-09-07 19:00:00 27.6 17 Sudeste 32 Este 0 -- -- 56
2017-09-07 18:00:00 28.8 17 Sudeste 30 Sudeste 0 -- -- 49
2017-09-07 17:00:00 28.7 19 Sudeste 32 Sudeste 0 -- -- 47
2017-09-07 16:00:00 28.8 19 Sudeste 33 Sudeste 0 -- -- 48
2017-09-07 15:00:00 29.2 10 Este 27 Este 0 -- -- 47
2017-09-07 14:00:00 28 11 Sudeste 23 Este 0 -- -- 51
2017-09-07 13:00:00 27 9 Este 20 Este 0 -- -- 60
2017-09-07 12:00:00 25.9 10 Nordeste 18 Este 0 -- -- 64
2017-09-07 11:00:00 24.4 4 Este 13 Este 0 -- -- 69
2017-09-07 10:00:00 22.1 3 Norte 12 Sur 0 -- -- 80
2017-09-07 09:00:00 20.4 11 Sur 24 Sur 0 -- -- 87
2017-09-07 08:00:00 20.1 4 Oeste 5 Oeste 0 -- -- 89
2017-09-07 07:00:00 20 0 Calma 6 Oeste 0 -- -- 89
2017-09-07 06:00:00 19.9 5 Noroeste 7 Noroeste 0 -- -- 88
2017-09-07 05:00:00 20.5 2 Este 7 Sudeste 0 -- -- 86
2017-09-07 04:00:00 20.7 6 Sudeste 11 Sudeste 0 -- -- 86
2017-09-07 03:00:00 21.1 7 Sudeste 14 Sudeste 0 -- -- 85
2017-09-07 02:00:00 21.4 9 Sudeste 20 Sudeste 0 -- -- 84
2017-09-07 01:00:00 21.8 8 Sudeste 14 Sudeste 0 -- -- 82
2017-09-07 00:00:00 22.5 9 Sudeste 13 Sudeste 0 -- -- 79
2017-09-06 23:00:00 23.1 5 Este 14 Sudeste 0 -- -- 70
2017-09-06 22:00:00 24.1 9 Sudeste 26 Sudeste 0 -- -- 64
2017-09-06 21:00:00 25.2 15 Sudeste 29 Sudeste 0 -- -- 62
2017-09-06 20:00:00 27.1 14 Sudeste 32 Sudeste 0 -- -- 54
2017-09-06 19:00:00 28.8 21 Sudeste 36 Sudeste 0 -- -- 47
2017-09-06 18:00:00 30.6 22 Sudeste 35 Sudeste 0 -- -- 38
2017-09-06 17:00:00 31.3 20 Sudeste 35 Sudeste 0 -- -- 33
2017-09-06 16:00:00 31.4 17 Sudeste 31 Sudeste 0 -- -- 33
2017-09-06 15:00:00 31 12 Sudeste 24 Sudeste 0 -- -- 35
2017-09-06 14:00:00 29.8 6 Nordeste -- -- -- -- -- 45
2017-09-06 13:00:00 -- -- -- -- -- -- -- -- --
2017-09-06 12:00:00 -- -- -- -- -- -- -- -- --
2017-09-06 11:00:00 -- -- -- -- -- -- -- -- --
2017-09-06 10:00:00 21.8 3 Sudeste 6 Sudeste 0 -- -- 72
2017-09-06 09:00:00 20 0 Calma 4 Noroeste 0 -- -- 78
2017-09-06 08:00:00 18.3 3 Sudeste 5 Sudeste 0 -- -- 83
2017-09-06 07:00:00 18.6 0 Calma 5 Sudeste 0 -- -- 83
2017-09-06 06:00:00 19.2 3 Sur 4 Sudoeste 0 -- -- 82
2017-09-06 05:00:00 19.7 2 Nordeste 8 Noroeste 0 -- -- 82
2017-09-06 04:00:00 20.5 2 Noroeste 4 Noroeste 0 -- -- 81
2017-09-06 03:00:00 21 2 Norte 8 Sur 0 -- -- 76
2017-09-06 02:00:00 21.9 0 Calma 16 Este 0 -- -- 72
2017-09-06 01:00:00 22.7 6 Sudeste 12 Sudeste 0 -- -- 69
2017-09-06 00:00:00 23.8 5 Este 18 Este 0 -- -- 65
2017-09-05 23:00:00 24.5 8 Sudeste 24 Sudeste 0 -- -- 61
2017-09-05 22:00:00 25.5 13 Sudeste 26 Sudeste 0 -- -- 57
2017-09-05 21:00:00 27 15 Sudeste 37 Sudeste 0 -- -- 50
2017-09-05 20:00:00 28.6 22 Sudeste 37 Sudeste 0 -- -- 44
2017-09-05 19:00:00 30 20 Sudeste 33 Sudeste 0 -- -- 41
2017-09-05 18:00:00 30.7 18 Sudeste 33 Sudeste 0 -- -- 39
2017-09-05 17:00:00 30.6 17 Sudeste 32 Sudeste 0 -- -- 41
2017-09-05 16:00:00 30.4 16 Sudeste 30 Sudeste 0 -- -- 44
2017-09-05 15:00:00 29.8 14 Sudeste 26 Sudeste 0 -- -- 47
2017-09-05 14:00:00 28.8 12 Sudeste 25 Sudeste 0 -- -- 52
2017-09-05 13:00:00 27.5 9 Sudeste 21 Sudeste 0 -- -- 56
2017-09-05 12:00:00 25.9 6 Sudeste 12 Sudeste 0 -- -- 62
2017-09-05 11:00:00 23.5 3 Este 8 Nordeste 0 -- -- 76
2017-09-05 10:00:00 22.1 3 Sudeste 9 Sur 0 -- -- 81
2017-09-05 09:00:00 21.3 2 Norte 6 Sur 0 -- -- 80
2017-09-05 08:00:00 20.3 0 Calma 7 Sur 0 -- -- 83
2017-09-05 07:00:00 20.6 2 Sudeste 11 Sur 0 -- -- 85
2017-09-05 06:00:00 20.7 5 Sur 12 Sur 0 -- -- 81
2017-09-05 05:00:00 20.9 3 Sur 7 Sur 0 -- -- 84
2017-09-05 04:00:00 21.4 4 Sudoeste 7 Oeste 0 -- -- 84
2017-09-05 03:00:00 21.7 2 Sur 8 Sudeste 0 -- -- 83
2017-09-05 02:00:00 22.2 6 Sur 9 Sur 0 -- -- 82
2017-09-05 01:00:00 22.4 7 Sudeste 14 Sudeste 0 -- -- 80
2017-09-05 00:00:00 22.8 9 Sudeste 18 Sudeste 0 -- -- 77
2017-09-04 23:00:00 23.6 13 Sudeste 21 Sudeste 0 -- -- 77
2017-09-04 22:00:00 24.7 8 Sudeste 20 Sudeste 0 -- -- 68
2017-09-04 21:00:00 26.4 10 Sudeste 31 Sudeste 0 -- -- 63
2017-09-04 20:00:00 28.4 19 Sudeste 33 Sudeste 0 -- -- 58
2017-09-04 19:00:00 30.6 19 Sudeste 34 Sudeste 0 -- -- 50
2017-09-04 18:00:00 32.7 15 Sudeste 36 Sudeste 0 -- -- 36
2017-09-04 17:00:00 34.3 12 Este 30 Nordeste 0 -- -- 26
2017-09-04 16:00:00 34.3 8 Sudeste 24 Sudeste 0 -- -- 24
2017-09-04 15:00:00 34.3 6 Nordeste 20 Este 0 -- -- 23
2017-09-04 14:00:00 33.2 7 Sudeste 15 Sudeste 0 -- -- 28
2017-09-04 13:00:00 31.6 6 Nordeste 13 Este 0 -- -- 33
2017-09-04 12:00:00 29.2 4 Nordeste 9 Nordeste 0 -- -- 47
2017-09-04 11:00:00 27.1 4 Sudeste 7 Este 0 -- -- 51
2017-09-04 10:00:00 23.6 4 Sur 8 Sur 0 -- -- 68
2017-09-04 09:00:00 20.6 3 Sudeste 7 Sur 0 -- -- 81
2017-09-04 08:00:00 18.9 3 Sudoeste 9 Sur 0 -- -- 87
2017-09-04 07:00:00 19.1 4 Sur 7 Sur 0 -- -- 86
2017-09-04 06:00:00 19.8 0 Calma 5 Sur 0 -- -- 85
2017-09-04 05:00:00 20.2 3 Sudeste 6 Oeste 0 -- -- 84
2017-09-04 04:00:00 20.7 0 Calma 5 Sur 0 -- -- 83
2017-09-04 03:00:00 21.8 3 Sur 5 Sur 0 -- -- 79
2017-09-04 02:00:00 22.4 0 Calma 6 Norte 0 -- -- 76
2017-09-04 01:00:00 22.4 4 Noroeste 5 Nordeste 0 -- -- 77
2017-09-04 00:00:00 22.9 3 Norte 9 Norte 0 -- -- 75
2017-09-03 23:00:00 23.8 4 Nordeste 10 Nordeste 0 -- -- 73
2017-09-03 22:00:00 25.7 3 Nordeste 15 Sudeste 0 -- -- 64
2017-09-03 21:00:00 27.1 8 Sudeste 21 Sudeste 0 -- -- 55
2017-09-03 20:00:00 28.5 12 Sudeste 23 Sudeste 0 -- -- 53
2017-09-03 19:00:00 30.1 13 Sudeste 25 Sudeste 0 -- -- 46
2017-09-03 18:00:00 31.1 8 Este 20 Sudeste 0 -- -- 45
2017-09-03 17:00:00 31.7 9 Este 19 Este 0 -- -- 47
2017-09-03 16:00:00 30 9 Este 18 Nordeste 0 -- -- 50
2017-09-03 15:00:00 28.2 6 Nordeste 14 Nordeste 0 -- -- 59
2017-09-03 14:00:00 25.9 6 Nordeste 15 Este 0 -- -- 66
2017-09-03 13:00:00 25 5 Sudeste 10 Sur 0 -- -- 66
2017-09-03 12:00:00 22.5 6 Nordeste 10 Norte 0 -- -- 75
2017-09-03 11:00:00 20.4 4 Este 9 Sudeste 0 -- -- 83
2017-09-03 10:00:00 19.3 0 Calma 6 Sudeste 0 -- -- 88
2017-09-03 09:00:00 18.8 3 Noroeste 5 Noroeste 0 -- -- 90
2017-09-03 08:00:00 19 2 Sudoeste 8 Sur 0 -- -- 90
2017-09-03 07:00:00 18.8 3 Sur 6 Sudeste 0 -- -- 90
2017-09-03 06:00:00 18.5 5 Sudeste 6 Sudeste 0 -- -- 89
2017-09-03 05:00:00 18.3 0 Calma 4 Noroeste 0 -- -- 90
2017-09-03 04:00:00 18.3 4 Noroeste 6 Noroeste 0 -- -- 90
2017-09-03 03:00:00 18.9 3 Norte 4 Norte 0 -- -- 87
2017-09-03 02:00:00 19 3 Norte 9 Norte 0 -- -- 87
2017-09-03 01:00:00 19.6 3 Nordeste 10 Nordeste 0 -- -- 84
2017-09-03 00:00:00 20.6 2 Norte 21 Sudeste 0 -- -- 80
2017-09-02 23:00:00 22 11 Sudeste 26 Sudeste 0 -- -- 75
2017-09-02 22:00:00 22.6 15 Sudeste 25 Sudeste 0 -- -- 73
2017-09-02 21:00:00 23.8 15 Sudeste 31 Sudeste 0 -- -- 68
2017-09-02 20:00:00 25.6 19 Sudeste 30 Sudeste 0 -- -- 60
2017-09-02 19:00:00 27.3 14 Sudeste 24 Sudeste 0 -- -- 53
2017-09-02 18:00:00 28.2 8 Sudeste 24 Sudeste 0 -- -- 51
2017-09-02 17:00:00 28.2 8 Sudeste 22 Sudeste 0 -- -- 51
2017-09-02 16:00:00 27.5 12 Sudeste 22 Este 0 -- -- 53
2017-09-02 15:00:00 26.9 10 Este 19 Sudeste 0 -- -- 56
2017-09-02 14:00:00 25.7 11 Sudeste 24 Sudeste 0 -- -- 60
2017-09-02 13:00:00 24.2 13 Sudeste 23 Este 0 -- -- 65
2017-09-02 12:00:00 22.7 11 Sudeste 25 Sudeste 0 -- -- 70
2017-09-02 11:00:00 21.4 5 Sudeste 9 Sudeste 0 -- -- 86
2017-09-02 10:00:00 21.4 3 Nordeste 15 Sudeste 0 -- -- 85
2017-09-02 09:00:00 20.8 5 Este 13 Sudeste 0 -- -- 86
2017-09-02 08:00:00 21.1 4 Nordeste 8 Sudeste 0 -- -- 87
2017-09-02 07:00:00 21.5 4 Sudeste 11 Sur 0 -- -- 84
2017-09-02 06:00:00 21.6 6 Sudeste 13 Sudeste 0 -- -- 84
2017-09-02 05:00:00 21.7 7 Sudeste 12 Sudeste 0 -- -- 83
2017-09-02 04:00:00 21.7 7 Sudeste 17 Sudeste 0 -- -- 83
2017-09-02 03:00:00 22 10 Sudeste 17 Sudeste 0 -- -- 82
2017-09-02 02:00:00 22.1 9 Sudeste 20 Sudeste 0 -- -- 83
2017-09-02 01:00:00 22.3 12 Sudeste 24 Sudeste 0 -- -- 83
2017-09-02 00:00:00 22.5 10 Sudeste 19 Sudeste 0 -- -- 82
2017-09-01 23:00:00 22.6 12 Sudeste 20 Sudeste 0 -- -- 81
2017-09-01 22:00:00 23.3 14 Sudeste 30 Sudeste 0 -- -- 77
2017-09-01 21:00:00 24 13 Sudeste 30 Sudeste 0 -- -- 75
2017-09-01 20:00:00 24.8 20 Sudeste 33 Sudeste 0 -- -- 72
2017-09-01 19:00:00 26.2 20 Sudeste 35 Sudeste 0 -- -- 66
2017-09-01 18:00:00 27.8 18 Sudeste 30 Sudeste 0 -- -- 58
2017-09-01 17:00:00 28.4 18 Sudeste 29 Sudeste 0 -- -- 52
2017-09-01 16:00:00 28.9 13 Sudeste 26 Sudeste 0 -- -- 49
2017-09-01 15:00:00 28.3 14 Sudeste 27 Sudeste 0 -- -- 52
2017-09-01 14:00:00 28 10 Sudeste 21 Sudeste 0 -- -- 55
2017-09-01 13:00:00 27.4 4 Sudeste 13 Este 0 -- -- 59
2017-09-01 12:00:00 25.8 5 Este 12 Este 0 -- -- 61
2017-09-01 11:00:00 24.3 5 Este 11 Nordeste 0 -- -- 69
2017-09-01 10:00:00 21.7 5 Noroeste 9 Noroeste 0 -- -- 76
2017-09-01 09:00:00 19.3 2 Sur 9 Noroeste 0 -- -- 85
2017-09-01 08:00:00 18.5 3 Sur 8 Sudoeste 0 -- -- 87
2017-09-01 07:00:00 18.3 0 Calma -- -- 0 -- -- 87
2017-09-01 06:00:00 18.7 4 Sur 6 Sudoeste 0 -- -- 85
2017-09-01 05:00:00 19.4 3 Sur 5 Sudoeste 0 -- -- 88
2017-09-01 04:00:00 19.7 0 Calma 4 Este 0 -- -- 87
2017-09-01 03:00:00 20.6 0 Calma 6 Sur 0 -- -- 84
2017-09-01 02:00:00 21.1 3 Sudeste 9 Sur 0 -- -- 85
2017-09-01 01:00:00 21.3 4 Sudeste 11 Sur 0 -- -- 84
2017-09-01 00:00:00 21.8 6 Sur 12 Sudeste 0 -- -- 80
2017-08-31 23:00:00 22.6 6 Sudeste 14 Sur 0 -- -- 74
2017-08-31 22:00:00 23.6 7 Sur 10 Sudeste 0 -- -- 70
2017-08-31 21:00:00 24.5 3 Sudeste 13 Sudeste 0 -- -- 68
2017-08-31 20:00:00 25.9 5 Sudeste 25 Sudeste 0 -- -- 60
2017-08-31 19:00:00 26.8 15 Sudeste 34 Sudeste 0 -- -- 55
2017-08-31 18:00:00 27.8 17 Sudeste 28 Sudeste 0 -- -- 50
2017-08-31 17:00:00 29 10 Este 24 Este 0 -- -- 46
2017-08-31 16:00:00 29.2 5 Sudeste 17 Sudeste 0 -- -- 46
2017-08-31 15:00:00 28.3 7 Nordeste 17 Este 0 -- -- 49
2017-08-31 14:00:00 27.3 5 Nordeste 12 Nordeste 0 -- -- 57
2017-08-31 13:00:00 25.5 6 Nordeste 10 Este 0 -- -- 59
2017-08-31 12:00:00 23.2 4 Norte 10 Norte 0 -- -- 75
2017-08-31 11:00:00 21.5 5 Norte 9 Norte 0 -- -- 81
2017-08-31 10:00:00 19 4 Noroeste 8 Noroeste 0 -- -- 87
2017-08-31 09:00:00 18.8 4 Oeste 10 Oeste 0 -- -- 86
2017-08-31 08:00:00 18.6 0 Calma 9 Sur 0 -- -- 88
2017-08-31 07:00:00 18.9 3 Sudeste 10 Oeste 0 -- -- 87
2017-08-31 06:00:00 18.7 5 Oeste 12 Oeste 0 -- -- 89
2017-08-31 05:00:00 19 3 Sudoeste 10 Sudeste 0 -- -- 91
2017-08-31 04:00:00 19.2 0 Calma 5 Oeste 0 -- -- 90
2017-08-31 03:00:00 19.7 0 Calma 5 Sudoeste 0 -- -- 87
2017-08-31 02:00:00 20.2 2 Sudeste 8 Oeste 0 -- -- 85
2017-08-31 01:00:00 20.4 4 Sur 8 Sur 0 -- -- 85
2017-08-31 00:00:00 20.8 6 Sur 10 Sur 0 -- -- 82
2017-08-30 23:00:00 21 5 Sudoeste 9 Sudoeste 0 -- -- 79
2017-08-30 22:00:00 21.5 4 Sur 6 Sudeste 0 -- -- 80
2017-08-30 21:00:00 22.5 0 Calma 4 Nordeste 0 -- -- 72
2017-08-30 20:00:00 23.1 4 Nordeste 9 Nordeste 0 -- -- 70
2017-08-30 19:00:00 23.5 3 Nordeste 14 Norte 0 -- -- 70
2017-08-30 18:00:00 23 7 Norte 14 Nordeste 0 -- -- 69
2017-08-30 17:00:00 22.1 4 Nordeste 9 Nordeste 0 -- -- 75
2017-08-30 16:00:00 20.5 5 Sudeste 9 Este 0 -- -- 81
2017-08-30 15:00:00 18.8 4 Sudeste 10 Sudeste 0.4 -- -- 91
2017-08-30 14:00:00 18.3 6 Este 17 Sudeste 1.2 -- -- 93
2017-08-30 13:00:00 18.3 5 Sudeste 14 Sudoeste 2.4 -- -- 93
2017-08-30 12:00:00 18.2 4 Noroeste 10 Oeste 1.2 -- -- 94
2017-08-30 11:00:00 18.2 4 Sudoeste 12 Sudoeste 0.2 -- -- 93
2017-08-30 10:00:00 18.2 3 Nordeste 10 Sudoeste 0 -- -- 93
2017-08-30 09:00:00 17.9 3 Noroeste 8 Oeste 0 -- -- 94
2017-08-30 08:00:00 17.8 0 Calma 5 Sur 0 -- -- 94
2017-08-30 07:00:00 17.7 3 Norte 12 Nordeste 0 -- -- 94
2017-08-30 06:00:00 17.9 4 Nordeste 14 Sudeste 0 -- -- 92
2017-08-30 05:00:00 18 7 Sudeste 12 Sudeste 0 -- -- 90
2017-08-30 04:00:00 18 5 Sudeste 12 Sudeste 0 -- -- 90
2017-08-30 03:00:00 17.8 2 Norte 8 Noroeste 0 -- -- 92
2017-08-30 02:00:00 18.3 5 Este 13 Sudeste 0 -- -- 88
2017-08-30 01:00:00 18.3 12 Sudeste 25 Sudeste 0.2 -- -- 89
2017-08-30 00:00:00 18.3 8 Sudeste 35 Sudeste 1.2 -- -- 90
2017-08-29 23:00:00 18.2 20 Sudeste 41 Este 3.4 -- -- 90
2017-08-29 22:00:00 19.3 10 Sudeste 17 Sudeste 4.6 -- -- 90
2017-08-29 21:00:00 19.7 5 Sur 9 Oeste 0 -- -- 86
2017-08-29 20:00:00 19.6 6 Oeste 9 Oeste 0 -- -- 87
2017-08-29 19:00:00 19.7 0 Calma 8 Nordeste 0 -- -- 89
2017-08-29 18:00:00 19.5 5 Sudeste 9 Nordeste 0 -- -- 88
2017-08-29 17:00:00 19.6 2 Este 15 Sudeste 0.8 -- -- 86
2017-08-29 16:00:00 19.1 11 Sudeste 18 Sudeste 2.2 -- -- 84
2017-08-29 15:00:00 19.1 4 Este 27 Sudeste 4.8 -- -- 88
2017-08-29 14:00:00 20.8 7 Este 21 Sudeste 1 -- -- 89
2017-08-29 13:00:00 20.6 12 Sudeste 19 Sudeste 1.6 -- -- 89
2017-08-29 12:00:00 21.5 0 Calma 6 Norte 0.4 -- -- 84
2017-08-29 11:00:00 21.1 4 Noroeste 7 Oeste 0 -- -- 79
2017-08-29 10:00:00 19.5 5 Noroeste 8 Oeste 0 -- -- 89
2017-08-29 09:00:00 19.3 0 Calma 6 Noroeste 0 -- -- 93
2017-08-29 08:00:00 18.8 6 Oeste 10 Oeste 0.2 -- -- 93
2017-08-29 07:00:00 18.8 6 Noroeste 10 Oeste 0 -- -- 92
2017-08-29 06:00:00 19.3 4 Oeste 9 Oeste 0 -- -- 92
2017-08-29 05:00:00 19.9 0 Calma 8 Sur 0.4 -- -- 92
2017-08-29 04:00:00 20.2 4 Sudeste 19 Sudoeste 11.8 -- -- 90
2017-08-29 03:00:00 20.9 2 Sudeste 19 Noroeste 2.2 -- -- 87
2017-08-29 02:00:00 22.1 4 Noroeste 10 Sudeste 0 -- -- 76
2017-08-29 01:00:00 22.4 6 Sur 18 Sudeste 0 -- -- 75
2017-08-29 00:00:00 22.9 11 Sudeste 19 Sudeste 0 -- -- 74
2017-08-28 23:00:00 23.2 11 Sudeste 21 Sudeste 0 -- -- 76
2017-08-28 22:00:00 24.1 11 Sudeste 24 Sudeste 0 -- -- 75
2017-08-28 21:00:00 25.3 11 Sudeste 26 Sudeste 0 -- -- 68
2017-08-28 20:00:00 26.7 17 Sudeste 32 Sudeste 0 -- -- 60
2017-08-28 19:00:00 27.7 18 Sudeste 34 Este 0 -- -- 50
2017-08-28 18:00:00 27.9 14 Sudeste 25 Sudeste 0 -- -- 54
2017-08-28 17:00:00 28.5 5 Nordeste 10 Sudeste 0 -- -- 53
2017-08-28 16:00:00 26.8 6 Sur 24 Este 0 -- -- 61
2017-08-28 15:00:00 26.1 6 Sudeste 22 Sudeste 0 -- -- 63
2017-08-28 14:00:00 25.8 12 Sudeste 30 Sudeste 0 -- -- 63
2017-08-28 13:00:00 25.1 12 Sudeste 26 Sudeste 0 -- -- 67
2017-08-28 12:00:00 25.1 9 Sudeste 41 Sudeste 0 -- -- 65
2017-08-28 11:00:00 25.7 11 Sudeste 17 Sudeste 0 -- -- 62
2017-08-28 10:00:00 24.8 4 Sudeste 6 Sudeste 0 -- -- 63
2017-08-28 09:00:00 21.3 4 Noroeste 8 Noroeste 0 -- -- 75
2017-08-28 08:00:00 21.2 0 Calma 13 Sur 0 -- -- 75
2017-08-28 07:00:00 21.4 7 Sudoeste 12 Sudoeste 0 -- -- 74
2017-08-28 06:00:00 21.1 8 Noroeste 15 Noroeste 0 -- -- 72
2017-08-28 05:00:00 22.4 5 Sudeste 8 Sudeste 0 -- -- 73
2017-08-28 04:00:00 22 5 Sudeste 9 Sudeste 0 -- -- 69
2017-08-28 03:00:00 22.3 4 Oeste 12 Sudeste 0 -- -- 69
2017-08-28 02:00:00 22.8 8 Sudeste 15 Sudeste 0 -- -- 66
2017-08-28 01:00:00 23 9 Sur 13 Sur 0 -- -- 64
2017-08-28 00:00:00 23.8 4 Sudoeste 15 Sudoeste 0 -- -- 57
2017-08-27 23:00:00 24.7 9 Sur 17 Sudoeste 0 -- -- 56
2017-08-27 22:00:00 25.9 5 Sudoeste 8 Sudoeste 0 -- -- 54
2017-08-27 21:00:00 26.6 0 Calma 8 Sur 0 -- -- 53
2017-08-27 20:00:00 26.1 8 Noroeste 26 Noroeste 0.2 -- -- 55
2017-08-27 19:00:00 29.1 15 Noroeste 30 Noroeste 0 -- -- 42
2017-08-27 18:00:00 31.1 15 Norte 35 Sudoeste 0 -- -- 38
2017-08-27 17:00:00 32.4 6 Este 13 Este 0 -- -- 39
2017-08-27 16:00:00 31.2 7 Nordeste 14 Nordeste 0 -- -- 41
2017-08-27 15:00:00 29.1 7 Nordeste 14 Nordeste 0 -- -- 52
2017-08-27 14:00:00 28.3 6 Nordeste 15 Nordeste 0 -- -- 56
2017-08-27 13:00:00 27.7 7 Sudeste 14 Sudeste 0 -- -- 56
2017-08-27 12:00:00 25.7 3 Sudeste 9 Sudeste 0 -- -- 64
2017-08-27 11:00:00 24.4 5 Sudeste 7 Sudeste 0 -- -- 71
2017-08-27 10:00:00 23.7 3 Noroeste 6 Sur 0 -- -- 72
2017-08-27 09:00:00 21.8 2 Sudeste 12 Noroeste 0 -- -- 74
2017-08-27 08:00:00 21 8 Oeste 13 Oeste 0 -- -- 80
2017-08-27 07:00:00 21.7 6 Oeste 14 Oeste 0 -- -- 83
2017-08-27 06:00:00 21.5 8 Oeste 12 Noroeste 0 -- -- 83
2017-08-27 05:00:00 22.9 6 Sur 19 Sudeste 0 -- -- 82
2017-08-27 04:00:00 23.2 10 Sudeste 21 Sudeste 0 -- -- 80
2017-08-27 03:00:00 23.9 5 Sudeste 12 Sur 0 -- -- 64
2017-08-27 02:00:00 25 2 Sudeste 14 Sudeste 0 -- -- 62
2017-08-27 01:00:00 25.5 6 Sur 17 Sur 0 -- -- 64
2017-08-27 00:00:00 26.1 5 Norte 15 Oeste 0 -- -- 66
2017-08-26 23:00:00 26.5 9 Sur 25 Sudeste 0 -- -- 60
2017-08-26 22:00:00 26.9 10 Sur 18 Sur 0 -- -- 58
2017-08-26 21:00:00 28.1 2 Sudeste 17 Sudeste 0 -- -- 51
2017-08-26 20:00:00 28.6 8 Sudeste 26 Sudoeste 0 -- -- 48
2017-08-26 19:00:00 30.1 13 Sur 25 Sudeste 0 -- -- 47
2017-08-26 18:00:00 31 16 Sudeste 40 Sudeste 0 -- -- 45
2017-08-26 17:00:00 33 22 Sudeste 36 Sudeste 0 -- -- 42
2017-08-26 16:00:00 33.6 22 Sudeste 37 Este 0 -- -- 40
2017-08-26 15:00:00 34 17 Sudeste 35 Sur 0 -- -- 36
2017-08-26 14:00:00 33.1 13 Sudeste 21 Sur 0 -- -- 35
2017-08-26 13:00:00 30.8 8 Nordeste 14 Nordeste 0 -- -- 46
2017-08-26 12:00:00 29.4 5 Nordeste 12 Este 0 -- -- 55
2017-08-26 11:00:00 27.3 2 Sudeste 13 Nordeste 0 -- -- 59
2017-08-26 10:00:00 24.6 7 Norte 11 Norte 0 -- -- 74
2017-08-26 09:00:00 22.2 6 Noroeste 10 Oeste 0 -- -- 79
2017-08-26 08:00:00 22.4 3 Sudoeste 6 Sudeste 0 -- -- 82
2017-08-26 07:00:00 22.6 6 Sudeste 9 Sudeste 0 -- -- 82
2017-08-26 06:00:00 23.1 3 Este 15 Sudeste 0 -- -- 79
2017-08-26 05:00:00 23.4 5 Sudeste 21 Sudeste 0 -- -- 80
2017-08-26 04:00:00 23.7 14 Sudeste 30 Sudeste 0 -- -- 78
2017-08-26 03:00:00 24.4 13 Sudeste 23 Sudeste 0 -- -- 73
2017-08-26 02:00:00 25.6 8 Sudeste 16 Sudeste 0 -- -- 50
2017-08-26 01:00:00 25.9 5 Este 9 Este 0 -- -- 56
2017-08-26 00:00:00 26.2 5 Sudeste 11 Este 0 -- -- 58
2017-08-25 23:00:00 26.8 10 Sudeste 21 Sudeste 0 -- -- 57
2017-08-25 22:00:00 27.4 10 Sudeste 19 Sudeste 0 -- -- 51
2017-08-25 21:00:00 28.4 4 Este 23 Este 0 -- -- 51
2017-08-25 20:00:00 29.7 19 Este 27 Este 0 -- -- 47
2017-08-25 19:00:00 31.2 6 Este 29 Sudeste 0 -- -- 47
2017-08-25 18:00:00 31.8 16 Sudeste 39 Sudeste 0 -- -- 43
2017-08-25 17:00:00 32.5 20 Sudeste 40 Sudeste 0 -- -- 37
2017-08-25 16:00:00 32.7 13 Sudeste 27 Sudeste 0 -- -- 34
2017-08-25 15:00:00 33.6 15 Sudeste 30 Sudeste 0 -- -- 27
2017-08-25 14:00:00 32.9 14 Sudeste 24 Sudeste 0 -- -- 29
2017-08-25 13:00:00 31.5 9 Sudeste 16 Este 0 -- -- 32
2017-08-25 12:00:00 29.3 6 Este 14 Este 0 -- -- 41
2017-08-25 11:00:00 26.5 5 Nordeste 11 Nordeste 0 -- -- 47
2017-08-25 10:00:00 23.4 4 Norte 8 Sudeste 0 -- -- 57
2017-08-25 09:00:00 20.7 4 Sudeste 11 Oeste 0 -- -- 63
2017-08-25 08:00:00 18.8 0 Calma 6 Oeste 0 -- -- 70
2017-08-25 07:00:00 19.3 0 Calma 6 Sur 0 -- -- 69
2017-08-25 06:00:00 20 0 Calma 6 Sudoeste 0 -- -- 66
2017-08-25 05:00:00 20.6 2 Sur 5 Sudeste 0 -- -- 63
2017-08-25 04:00:00 21.7 0 Calma 7 Norte 0 -- -- 67
2017-08-25 03:00:00 22.3 3 Norte 6 Oeste 0 -- -- 60
2017-08-25 02:00:00 23.3 4 Noroeste 11 Sudeste 0 -- -- 52
2017-08-25 01:00:00 24.8 8 Sudeste 15 Sudeste 0 -- -- 44
2017-08-25 00:00:00 25.2 6 Sudeste 19 Sudeste 0 -- -- 48
2017-08-24 23:00:00 26.1 10 Sudeste 16 Sudeste 0 -- -- 46
2017-08-24 22:00:00 27 10 Sudeste 18 Sudeste 0 -- -- 47
2017-08-24 21:00:00 28.6 13 Sudeste 27 Sudeste 0 -- -- 43
2017-08-24 20:00:00 30 17 Sudeste 36 Sudeste 0 -- -- 40
2017-08-24 19:00:00 31.4 21 Sudeste 36 Sudeste 0 -- -- 39
2017-08-24 18:00:00 32.4 22 Sudeste 39 Sudeste 0 -- -- 37
2017-08-24 17:00:00 33.1 22 Sudeste 36 Sudeste 0 -- -- 36
2017-08-24 16:00:00 33.2 19 Sudeste 34 Sudeste 0 -- -- 33
2017-08-24 15:00:00 33.1 18 Sudeste 30 Sudeste 0 -- -- 31
2017-08-24 14:00:00 32.2 19 Sudeste 34 Sur 0 -- -- 27
2017-08-24 13:00:00 31.4 6 Este 23 Este 0 -- -- 33
2017-08-24 12:00:00 28.9 11 Sudeste 20 Sudeste 0 -- -- 32
2017-08-24 11:00:00 25.7 3 Este 8 Norte 0 -- -- 56
2017-08-24 10:00:00 23.4 3 Este 6 Sudeste 0 -- -- 64
2017-08-24 09:00:00 20.3 3 Sudeste 6 Sudeste 0 -- -- 70
2017-08-24 08:00:00 18.5 3 Oeste 6 Oeste 0 -- -- 80
2017-08-24 07:00:00 18.7 0 Calma 10 Sudeste 0 -- -- 79
2017-08-24 06:00:00 19.3 5 Sudeste 9 Sudeste 0 -- -- 76
2017-08-24 05:00:00 20.1 0 Calma 6 Noroeste 0 -- -- 83
2017-08-24 04:00:00 20.4 2 Noroeste 5 Norte 0 -- -- 87
2017-08-24 03:00:00 21.2 3 Norte 9 Sudeste 0 -- -- 81
2017-08-24 02:00:00 22.8 7 Sudeste 17 Sudeste 0 -- -- 68
2017-08-24 01:00:00 23.2 4 Este 23 Sudeste 0 -- -- 66
2017-08-24 00:00:00 23.9 12 Sudeste 23 Sudeste 0 -- -- 64
2017-08-23 23:00:00 25.2 14 Sudeste 22 Sudeste 0 -- -- 56
2017-08-23 22:00:00 26.8 9 Sudeste 29 Sudeste 0 -- -- 41
2017-08-23 21:00:00 28.6 16 Sudeste 42 Sudeste 0 -- -- 36
2017-08-23 20:00:00 30.8 22 Sudeste 42 Sudeste 0 -- -- 34
2017-08-23 19:00:00 32.3 26 Sudeste 44 Sudeste 0 -- -- 30
2017-08-23 18:00:00 33.4 24 Sudeste 43 Sudeste 0 -- -- 29
2017-08-23 17:00:00 33.9 24 Sudeste 41 Sudeste 0 -- -- 32
2017-08-23 16:00:00 33.8 22 Sudeste 40 Este 0 -- -- 31
2017-08-23 15:00:00 33.9 20 Sudeste 32 Este 0 -- -- 26
2017-08-23 14:00:00 32.9 16 Este 27 Sudeste 0 -- -- 29
2017-08-23 13:00:00 31.7 12 Este 22 Sudeste 0 -- -- 37
2017-08-23 12:00:00 29.9 8 Este 14 Sudeste 0 -- -- 42
2017-08-23 11:00:00 27.1 6 Nordeste 10 Este 0 -- -- 50
2017-08-23 10:00:00 23.3 4 Noroeste 8 Noroeste 0 -- -- 60
2017-08-23 09:00:00 21.7 3 Norte 6 Sudeste 0 -- -- 67
2017-08-23 08:00:00 19.8 2 Sur 8 Sur 0 -- -- 74
2017-08-23 07:00:00 19.8 5 Sur 8 Sur 0 -- -- 72
2017-08-23 06:00:00 20 4 Sur 8 Sudeste 0 -- -- 71
2017-08-23 05:00:00 20.9 4 Oeste 6 Noroeste 0 -- -- 66
2017-08-23 04:00:00 21 3 Norte 5 Nordeste 0 -- -- 69
2017-08-23 03:00:00 21.8 4 Norte 7 Norte 0 -- -- 67
2017-08-23 02:00:00 22.4 3 Norte 9 Nordeste 0 -- -- 65
2017-08-23 01:00:00 23.2 4 Nordeste 8 Nordeste 0 -- -- 63
2017-08-23 00:00:00 24.2 3 Nordeste 12 Nordeste 0 -- -- 60
2017-08-22 23:00:00 26.2 7 Este 26 Sudeste 0 -- -- 54
2017-08-22 22:00:00 27.5 16 Sudeste 30 Sudeste 0 -- -- 54
2017-08-22 21:00:00 28.8 18 Sudeste 30 Sudeste 0 -- -- 51
2017-08-22 20:00:00 30.7 20 Sudeste 34 Sudeste 0 -- -- 47
2017-08-22 19:00:00 32.5 20 Sudeste 36 Sudeste 0 -- -- 40
2017-08-22 18:00:00 33.9 17 Sudeste 28 Sudeste 0 -- -- 30
2017-08-22 17:00:00 34 16 Sudeste 28 Sudeste 0 -- -- 30
2017-08-22 16:00:00 34.2 13 Sudeste 28 Este 0 -- -- 29
2017-08-22 15:00:00 33.2 12 Sudeste 26 Sudeste 0 -- -- 31
2017-08-22 14:00:00 31.7 13 Sudeste 24 Sudeste 0 -- -- 36
2017-08-22 13:00:00 30.8 10 Este 18 Este 0 -- -- 39
2017-08-22 12:00:00 28.1 8 Nordeste 13 Este 0 -- -- 49
2017-08-22 11:00:00 25.8 3 Nordeste 9 Este 0 -- -- 57
2017-08-22 10:00:00 23.1 4 Norte 8 Noroeste 0 -- -- 67
2017-08-22 09:00:00 21.4 4 Sudeste 5 Sudeste 0 -- -- 70
2017-08-22 08:00:00 19.4 0 Calma 3 Sudeste 0 -- -- 79
2017-08-22 07:00:00 19.2 3 Sur 6 Oeste 0 -- -- 79
2017-08-22 06:00:00 19.8 2 Oeste 6 Oeste 0 -- -- 79
2017-08-22 05:00:00 20.3 4 Oeste 8 Oeste 0 -- -- 79
2017-08-22 04:00:00 21 3 Nordeste 5 Sudeste 0 -- -- 76
2017-08-22 03:00:00 21.3 0 Calma 8 Sudeste 0 -- -- 75
2017-08-22 02:00:00 22.1 4 Este 12 Este 0 -- -- 72
2017-08-22 01:00:00 22.6 6 Sudeste 17 Sudeste 0 -- -- 70
2017-08-22 00:00:00 23.4 15 Sudeste 24 Sudeste 0 -- -- 66